Time;durP1;ratioP1;P1;durP2;ratioP2;P2;SDS_P1;SDS_P2;PMS_P1;PMS_P2;Temp;Humidity;BMP_temperature;BMP_pressure;BME280_temperature;BME280_humidity;BME280_pressure;Samples;Min_cycle;Max_cycle;Signal;HPM_P1;HPM_P2
2022/10/16 16:31:35;;;;;;;7.40;2.60;;;24.50;91.90;;;;;;10617119;27;20370;-81
2022/10/16 16:36:38;;;;;;;8.10;2.53;;;23.80;93.30;;;;;;10564478;28;20071;-80
2022/10/16 16:41:40;;;;;;;8.05;2.35;;;23.50;94.80;;;;;;10563262;28;20117;-82
2022/10/16 16:46:45;;;;;;;9.68;3.30;;;23.40;95.40;;;;;;10548993;28;20047;-86
2022/10/16 16:51:47;;;;;;;10.18;3.25;;;23.20;95.70;;;;;;10560306;28;20077;-83
2022/10/16 16:56:49;;;;;;;11.02;2.90;;;23.00;96.00;;;;;;10566028;28;20044;-79
2022/10/16 17:01:53;;;;;;;9.30;3.40;;;22.80;96.50;;;;;;10565200;28;20181;-79
2022/10/16 17:06:55;;;;;;;30.85;14.93;;;22.70;97.20;;;;;;10564375;28;20064;-79
2022/10/16 17:11:57;;;;;;;12.13;4.93;;;22.60;97.80;;;;;;10566512;28;20546;-79
2022/10/16 17:17:00;;;;;;;7.40;3.50;;;22.40;98.10;;;;;;10567952;28;20079;-78
2022/10/16 17:22:02;;;;;;;18.20;4.10;;;22.20;98.60;;;;;;10567543;28;20480;-79
2022/10/16 17:27:04;;;;;;;10.52;3.67;;;22.10;98.90;;;;;;10565681;28;20048;-79
2022/10/16 17:32:07;;;;;;;9.52;2.92;;;22.00;99.30;;;;;;10567311;28;20051;-79
2022/10/16 17:37:09;;;;;;;12.90;2.95;;;21.90;99.30;;;;;;10566084;28;20082;-80
2022/10/16 17:42:11;;;;;;;7.28;2.45;;;21.70;98.80;;;;;;10531319;28;20059;-79
2022/10/16 17:47:14;;;;;;;6.47;2.60;;;21.60;98.60;;;;;;10534971;28;20144;-78
2022/10/16 17:52:16;;;;;;;33.08;19.67;;;21.50;97.30;;;;;;10516137;28;20091;-79
2022/10/16 17:57:18;;;;;;;14.45;5.60;;;21.50;98.70;;;;;;10516559;28;20048;-78
2022/10/16 18:02:21;;;;;;;9.18;2.33;;;21.20;98.60;;;;;;10535163;28;20132;-80
2022/10/16 18:07:24;;;;;;;5.30;1.95;;;21.20;97.70;;;;;;10532188;28;20053;-79
2022/10/16 18:12:25;;;;;;;6.28;1.60;;;21.10;97.20;;;;;;10529019;28;20753;-78
2022/10/16 18:17:30;;;;;;;9.75;2.05;;;21.10;96.70;;;;;;10536671;28;20131;-79
2022/10/16 18:22:34;;;;;;;8.98;1.80;;;20.60;99.40;;;;;;10532360;28;20409;-80
2022/10/16 18:27:36;;;;;;;7.28;2.97;;;20.60;98.30;;;;;;10533529;28;20063;-79
2022/10/16 18:32:39;;;;;;;10.60;3.20;;;20.70;99.50;;;;;;10533307;28;20048;-80
2022/10/16 18:37:41;;;;;;;10.82;3.53;;;20.60;99.90;;;;;;10536298;28;20084;-80
2022/10/16 18:42:43;;;;;;;10.77;4.55;;;20.50;99.90;;;;;;10535917;28;20543;-79
2022/10/16 18:47:46;;;;;;;12.88;2.83;;;20.50;99.90;;;;;;10534863;28;20137;-79
2022/10/16 18:52:49;;;;;;;9.80;3.00;;;20.40;99.90;;;;;;10531104;28;20048;-82
2022/10/16 18:57:51;;;;;;;9.30;3.28;;;20.20;99.90;;;;;;10534647;28;20100;-80
2022/10/16 19:02:54;;;;;;;10.40;3.55;;;20.00;99.90;;;;;;10534838;28;20127;-80
2022/10/16 19:07:57;;;;;;;9.82;3.50;;;20.00;99.90;;;;;;10535862;28;20105;-87
2022/10/16 19:13:00;;;;;;;8.90;3.38;;;19.80;99.90;;;;;;10534314;28;20101;-82
2022/10/16 19:18:03;;;;;;;8.68;3.35;;;19.70;99.90;;;;;;10534766;28;20060;-83
2022/10/16 19:23:05;;;;;;;10.05;3.58;;;19.60;99.90;;;;;;10533582;28;20044;-81
2022/10/16 19:28:07;;;;;;;7.63;3.47;;;19.50;99.90;;;;;;10533644;28;20058;-78
2022/10/16 19:33:11;;;;;;;51.75;27.23;;;19.20;99.90;;;;;;10534201;28;20102;-78
2022/10/16 19:38:12;;;;;;;13.15;5.70;;;19.10;99.90;;;;;;10533070;28;20113;-79
2022/10/16 19:43:14;;;;;;;10.15;4.85;;;19.00;99.90;;;;;;10533858;28;20105;-79
2022/10/16 19:48:17;;;;;;;9.20;4.53;;;19.00;99.90;;;;;;10532893;28;20079;-79
2022/10/16 19:53:19;;;;;;;8.38;4.13;;;19.00;99.90;;;;;;10531561;28;20377;-79
2022/10/16 19:58:22;;;;;;;8.88;3.95;;;19.10;99.90;;;;;;10530852;28;20101;-78
2022/10/16 20:03:25;;;;;;;10.55;3.67;;;19.10;99.90;;;;;;10531917;28;20101;-79
2022/10/16 20:08:27;;;;;;;9.70;4.13;;;19.00;99.90;;;;;;10530176;28;20415;-78
2022/10/16 20:13:30;;;;;;;9.02;3.38;;;18.70;99.90;;;;;;10531080;28;20075;-78
2022/10/16 20:18:33;;;;;;;7.82;3.90;;;18.70;99.90;;;;;;10532589;28;20075;-78
2022/10/16 20:23:35;;;;;;;11.07;4.07;;;18.70;99.90;;;;;;10532926;28;20059;-78
2022/10/16 20:28:40;;;;;;;9.10;3.50;;;18.60;99.90;;;;;;10532116;28;20095;-78
2022/10/16 20:33:44;;;;;;;8.27;3.00;;;18.60;99.90;;;;;;10532177;28;20447;-78
2022/10/16 20:38:46;;;;;;;7.45;2.90;;;18.50;99.90;;;;;;10531776;28;20052;-78
2022/10/16 20:43:50;;;;;;;11.15;3.38;;;18.30;99.90;;;;;;10533023;28;20052;-78
2022/10/16 20:48:55;;;;;;;6.82;3.08;;;18.30;99.90;;;;;;10531733;28;20493;-77
2022/10/16 20:53:59;;;;;;;8.55;3.90;;;18.20;99.90;;;;;;10529067;28;20082;-77
2022/10/16 20:59:01;;;;;;;9.23;3.15;;;18.10;99.90;;;;;;10531253;28;20148;-77
2022/10/16 21:04:07;;;;;;;8.77;3.33;;;18.10;99.90;;;;;;10531907;28;20122;-78
2022/10/16 21:09:09;;;;;;;8.82;3.08;;;18.20;99.90;;;;;;10530686;28;20056;-78
2022/10/16 21:14:11;;;;;;;5.65;3.40;;;18.10;99.90;;;;;;10533039;28;20055;-78
2022/10/16 21:19:14;;;;;;;8.32;2.67;;;18.10;99.90;;;;;;10539036;28;20525;-78
2022/10/16 21:24:16;;;;;;;7.30;3.13;;;18.10;99.90;;;;;;10539762;28;20508;-78
2022/10/16 21:29:19;;;;;;;5.63;2.53;;;18.00;99.90;;;;;;10538074;28;20143;-78
2022/10/16 21:34:22;;;;;;;9.30;2.95;;;17.90;99.90;;;;;;10539660;28;20048;-78
2022/10/16 21:39:24;;;;;;;6.20;2.70;;;17.70;99.90;;;;;;10533000;28;20132;-77
2022/10/16 21:44:25;;;;;;;9.20;3.00;;;17.80;99.90;;;;;;10537581;28;20174;-77
2022/10/16 21:49:29;;;;;;;5.10;2.95;;;17.60;99.90;;;;;;10537179;28;20083;-77
2022/10/16 21:54:31;;;;;;;10.82;3.53;;;17.50;99.90;;;;;;10536742;28;20067;-77
2022/10/16 21:59:32;;;;;;;6.32;2.83;;;17.30;99.90;;;;;;10538026;28;20075;-76
